createdAt,value
2019-05-02T00:01:25.001Z,23.30
2019-05-02T00:03:55.994Z,22.37
2019-05-02T00:06:27.459Z,22.23
2019-05-02T00:09:18.197Z,21.10
2019-05-02T00:11:58.586Z,20.33
2019-05-02T00:14:21.919Z,20.67
2019-05-02T00:16:52.819Z,19.20
2019-05-02T00:19:23.882Z,19.27
2019-05-02T00:22:17.122Z,18.87
2019-05-02T00:24:46.178Z,19.00
2019-05-02T00:27:17.232Z,19.27
2019-05-02T00:29:48.048Z,18.77
2019-05-02T00:32:22.457Z,18.63
2019-05-02T00:34:51.393Z,17.20
2019-05-02T00:37:24.605Z,16.37
2019-05-02T00:39:54.778Z,16.47
2019-05-02T00:42:25.563Z,15.83
2019-05-02T00:44:57.013Z,15.17
2019-05-02T00:47:42.313Z,15.80
2019-05-02T00:50:13.843Z,14.80
2019-05-02T00:52:44.588Z,14.60
2019-05-02T00:55:15.699Z,15.50
2019-05-02T00:57:50.791Z,16.40
2019-05-02T01:00:19.832Z,16.27
2019-05-02T01:02:56.928Z,16.33
2019-05-02T01:05:46.753Z,16.73
2019-05-02T01:08:17.421Z,17.13
2019-05-02T01:10:52.132Z,17.60
2019-05-02T01:13:20.736Z,18.73
2019-05-02T01:15:51.484Z,18.50
2019-05-02T01:18:24.418Z,17.53
2019-05-02T01:20:58.198Z,18.13
2019-05-02T01:23:29.501Z,18.07
2019-05-02T01:26:00.447Z,18.60
2019-05-02T01:28:54.282Z,18.30
2019-05-02T01:31:29.266Z,17.77
2019-05-02T01:34:17.979Z,17.30
2019-05-02T01:36:57.186Z,16.90
2019-05-02T01:39:27.997Z,17.23
2019-05-02T01:41:59.968Z,16.80
2019-05-02T01:44:36.146Z,16.20
2019-05-02T01:47:03.885Z,16.27
2019-05-02T01:49:34.516Z,16.30
2019-05-02T01:52:05.316Z,15.00
2019-05-02T01:54:36.253Z,14.97
2019-05-02T01:57:08.706Z,15.10
2019-05-02T01:59:39.508Z,15.30
2019-05-02T02:02:10.293Z,14.97
2019-05-02T02:04:41.108Z,15.23
2019-05-02T02:07:14.968Z,15.10
2019-05-02T02:09:45.841Z,14.90
2019-05-02T02:12:16.732Z,15.40
2019-05-02T02:14:48.166Z,16.40
2019-05-02T02:17:19.950Z,15.40
2019-05-02T02:19:55.500Z,17.27
2019-05-02T02:22:41.656Z,15.70
2019-05-02T02:25:36.262Z,16.37
2019-05-02T02:28:05.750Z,16.50
2019-05-02T02:30:36.579Z,16.60
2019-05-02T02:33:09.472Z,17.47
2019-05-02T02:35:49.582Z,16.27
2019-05-02T02:38:12.577Z,17.60
2019-05-02T02:40:43.397Z,18.27
2019-05-02T02:43:32.891Z,18.77
2019-05-02T02:46:00.331Z,18.20
2019-05-02T02:48:33.897Z,18.17
2019-05-02T02:51:04.354Z,16.93
2019-05-02T02:53:35.387Z,18.70
2019-05-02T02:56:08.557Z,18.90
2019-05-02T02:58:45.782Z,19.23
2019-05-02T03:01:12.066Z,19.27
2019-05-02T03:03:43.138Z,18.93
2019-05-02T03:06:13.989Z,19.60
2019-05-02T03:08:48.569Z,19.97
2019-05-02T03:11:23.843Z,18.80
2019-05-02T03:14:06.093Z,19.83
2019-05-02T03:16:32.357Z,20.33
2019-05-02T03:19:03.281Z,19.60
2019-05-02T03:21:34.228Z,19.20
2019-05-02T03:24:05.756Z,20.10
2019-05-02T03:26:36.776Z,20.97
2019-05-02T03:29:07.584Z,20.37
2019-05-02T03:31:38.703Z,19.77
2019-05-02T03:34:09.440Z,22.07
2019-05-02T03:36:41.550Z,21.07
2019-05-02T03:39:14.912Z,20.93
2019-05-02T03:41:45.061Z,22.87
2019-05-02T03:44:24.818Z,23.30
2019-05-02T03:46:54.246Z,24.53
2019-05-02T03:49:21.389Z,24.23
2019-05-02T03:51:55.909Z,25.33
2019-05-02T03:54:24.717Z,26.87
2019-05-02T03:56:55.430Z,26.60
2019-05-02T03:59:37.389Z,26.60
2019-05-02T04:01:59.524Z,24.87
2019-05-02T04:04:31.231Z,24.83
2019-05-02T04:07:03.489Z,24.10
2019-05-02T04:09:42.584Z,23.47
2019-05-02T04:12:18.890Z,24.17
2019-05-02T04:14:42.418Z,24.00
2019-05-02T04:17:13.353Z,25.27
2019-05-02T04:19:44.278Z,23.03
2019-05-02T04:22:16.127Z,25.20
2019-05-02T04:24:54.642Z,24.07
2019-05-02T04:27:19.756Z,23.40
2019-05-02T04:29:50.708Z,22.93
2019-05-02T04:32:21.526Z,22.97
2019-05-02T04:34:55.617Z,22.23
2019-05-02T04:37:25.203Z,20.83
2019-05-02T04:39:59.082Z,21.67
2019-05-02T04:42:29.374Z,23.53
2019-05-02T04:45:20.669Z,23.23
2019-05-02T04:47:33.004Z,21.37
2019-05-02T04:50:07.659Z,21.83
2019-05-02T04:52:38.390Z,22.97
2019-05-02T04:55:20.031Z,24.57
2019-05-02T04:57:47.181Z,24.67
2019-05-02T05:00:35.599Z,23.20
2019-05-02T05:03:15.294Z,22.87
2019-05-02T05:05:40.329Z,21.67
2019-05-02T05:08:11.473Z,21.13
2019-05-02T05:10:45.059Z,20.73
2019-05-02T05:13:19.740Z,22.83
2019-05-02T05:15:51.199Z,23.03
2019-05-02T05:18:19.933Z,22.77
2019-05-02T05:20:54.083Z,23.87
2019-05-02T05:23:41.972Z,23.03
2019-05-02T05:26:12.746Z,23.00
2019-05-02T05:28:44.511Z,21.73
2019-05-02T05:31:23.410Z,24.63
2019-05-02T05:33:48.313Z,24.73
2019-05-02T05:36:20.067Z,23.90
2019-05-02T05:38:52.017Z,25.90
2019-05-02T05:41:23.331Z,22.50
2019-05-02T05:43:54.387Z,26.47
2019-05-02T05:46:25.228Z,24.87
2019-05-02T05:48:57.823Z,27.10
2019-05-02T05:51:28.558Z,24.13
2019-05-02T05:54:03.017Z,27.13
2019-05-02T05:56:32.525Z,26.80
2019-05-02T05:59:04.474Z,24.03
2019-05-02T06:01:36.427Z,25.20
2019-05-02T06:04:08.704Z,27.13
2019-05-02T06:06:39.450Z,25.20
2019-05-02T06:09:13.762Z,27.20
2019-05-02T06:11:43.477Z,26.83
2019-05-02T06:14:14.309Z,25.40
2019-05-02T06:16:46.660Z,25.60
2019-05-02T06:19:19.133Z,24.80
2019-05-02T06:21:50.093Z,27.17
2019-05-02T06:24:20.992Z,27.97
2019-05-02T06:26:51.992Z,28.03
2019-05-02T06:29:22.868Z,28.23
2019-05-02T06:31:53.797Z,27.63
2019-05-02T06:34:24.816Z,27.97
2019-05-02T06:36:55.754Z,28.53
2019-05-02T06:39:27.162Z,30.00
2019-05-02T06:41:59.195Z,26.70
2019-05-02T06:44:30.083Z,29.70
2019-05-02T06:47:04.240Z,27.77
2019-05-02T06:49:33.948Z,29.17
2019-05-02T06:52:05.047Z,28.67
2019-05-02T06:54:35.789Z,27.03
2019-05-02T06:57:06.715Z,28.63
2019-05-02T06:59:37.582Z,27.00
2019-05-02T07:02:08.747Z,27.23
2019-05-02T07:04:39.533Z,26.70
2019-05-02T07:07:13.185Z,27.57
2019-05-02T07:09:44.413Z,26.73
2019-05-02T07:12:18.538Z,25.00
2019-05-02T07:14:56.156Z,25.87
2019-05-02T07:17:42.194Z,27.37
2019-05-02T07:20:14.158Z,25.73
2019-05-02T07:22:45.674Z,24.33
2019-05-02T07:25:19.190Z,25.27
2019-05-02T07:27:51.631Z,26.93
2019-05-02T07:30:23.371Z,21.53
2019-05-02T07:32:56.403Z,25.40
2019-05-02T07:35:28.038Z,25.73
2019-05-02T07:38:05.217Z,26.10
2019-05-02T07:40:41.648Z,25.53
2019-05-02T07:43:13.476Z,25.07
2019-05-02T07:45:46.383Z,22.33
2019-05-02T07:48:18.963Z,22.13
2019-05-02T07:50:50.074Z,23.73
2019-05-02T07:53:21.026Z,23.40
2019-05-02T07:55:52.033Z,24.73
2019-05-02T07:58:23.088Z,23.63
2019-05-02T08:00:53.967Z,22.83
2019-05-02T08:03:29.477Z,23.80
2019-05-02T08:05:58.623Z,22.30
2019-05-02T08:08:31.482Z,20.90
2019-05-02T08:11:03.286Z,21.10
2019-05-02T08:13:34.288Z,19.07
2019-05-02T08:16:05.162Z,20.80
2019-05-02T08:18:36.223Z,22.43
2019-05-02T08:21:10.661Z,22.07
2019-05-02T08:23:42.998Z,22.90
2019-05-02T08:26:16.387Z,20.50
2019-05-02T08:28:58.396Z,18.67
2019-05-02T08:31:30.341Z,17.90
2019-05-02T08:34:05.237Z,21.83
2019-05-02T08:36:35.299Z,20.33
2019-05-02T08:39:07.998Z,19.90
2019-05-02T08:41:38.857Z,21.13
2019-05-02T08:44:09.592Z,21.93
2019-05-02T08:46:40.359Z,23.07
2019-05-02T08:49:18.716Z,20.57
2019-05-02T08:51:46.943Z,19.40
2019-05-02T08:54:17.728Z,20.13
2019-05-02T08:56:53.221Z,20.47
2019-05-02T08:59:24.458Z,21.50
2019-05-02T09:01:56.190Z,19.97
2019-05-02T09:04:29.036Z,20.60
2019-05-02T09:07:01.579Z,19.67
2019-05-02T09:09:32.569Z,18.17
2019-05-02T09:12:12.191Z,18.83
2019-05-02T09:14:36.404Z,19.90
2019-05-02T09:17:13.513Z,20.73
2019-05-02T09:19:40.155Z,21.97
2019-05-02T09:22:13.309Z,19.80
2019-05-02T09:24:44.970Z,20.40
2019-05-02T09:27:17.140Z,18.87
2019-05-02T09:29:48.337Z,18.47
2019-05-02T09:32:24.874Z,17.90
2019-05-02T09:34:56.657Z,17.57
2019-05-02T09:37:25.402Z,17.93
2019-05-02T09:39:56.513Z,17.93
2019-05-02T09:42:27.606Z,19.07
2019-05-02T09:44:59.014Z,18.90
2019-05-02T09:47:33.217Z,17.87
2019-05-02T09:50:10.121Z,19.07
2019-05-02T09:52:44.162Z,18.77
2019-05-02T09:55:15.786Z,19.83
2019-05-02T09:57:46.622Z,16.73
2019-05-02T10:00:36.143Z,17.90
2019-05-02T10:03:07.098Z,18.97
2019-05-02T10:05:37.926Z,18.43
2019-05-02T10:08:13.062Z,18.03
2019-05-02T10:10:45.876Z,19.07
2019-05-02T10:13:14.847Z,18.70
2019-05-02T10:15:46.477Z,17.63
2019-05-02T10:18:24.080Z,16.27
2019-05-02T10:20:52.267Z,15.47
2019-05-02T10:23:23.609Z,14.07
2019-05-02T10:25:55.183Z,15.70
2019-05-02T10:28:26.949Z,16.70
2019-05-02T10:31:02.099Z,16.73
2019-05-02T10:33:37.443Z,15.70
2019-05-02T10:36:05.963Z,15.43
2019-05-02T10:38:37.110Z,15.13
2019-05-02T10:41:08.488Z,12.63
2019-05-02T10:43:39.892Z,12.77
2019-05-02T10:46:23.055Z,12.67
2019-05-02T10:49:01.940Z,12.50
2019-05-02T10:51:36.461Z,12.10
2019-05-02T10:54:09.118Z,10.97
2019-05-02T10:56:39.996Z,12.50
2019-05-02T10:59:11.786Z,9.93
2019-05-02T11:02:02.538Z,8.20
2019-05-02T11:04:36.489Z,7.13
2019-05-02T11:07:07.464Z,7.73
2019-05-02T11:09:38.323Z,6.93
2019-05-02T11:12:11.868Z,5.90
2019-05-02T11:14:55.573Z,7.07
2019-05-02T11:17:32.358Z,7.30
2019-05-02T11:20:05.674Z,6.90
2019-05-02T11:22:36.595Z,6.60
2019-05-02T11:25:08.117Z,6.50
2019-05-02T11:27:39.585Z,5.87
2019-05-02T11:30:16.884Z,6.63
2019-05-02T11:32:46.027Z,6.77
2019-05-02T11:35:16.975Z,8.80
2019-05-02T11:37:47.977Z,7.50
2019-05-02T11:40:19.233Z,7.73
2019-05-02T11:42:52.062Z,7.93
2019-05-02T11:45:22.742Z,7.73
2019-05-02T11:47:56.012Z,7.33
2019-05-02T11:50:26.621Z,8.40
2019-05-02T11:52:58.789Z,8.40
2019-05-02T11:55:31.813Z,7.70
2019-05-02T11:58:07.819Z,9.43
2019-05-02T12:00:35.044Z,8.23
2019-05-02T12:03:22.767Z,8.47
2019-05-02T12:05:53.643Z,7.57
2019-05-02T12:08:24.598Z,7.73
2019-05-02T12:10:55.539Z,7.37
2019-05-02T12:13:26.343Z,8.70
2019-05-02T12:15:57.242Z,9.87
2019-05-02T12:18:28.127Z,9.50
2019-05-02T12:20:59.368Z,9.67
2019-05-02T12:23:32.056Z,9.70
2019-05-02T12:26:03.634Z,10.40
2019-05-02T12:28:34.599Z,10.33
2019-05-02T12:31:08.077Z,10.83
2019-05-02T12:33:42.645Z,9.60
2019-05-02T12:36:14.383Z,10.00
2019-05-02T12:38:45.203Z,9.93
2019-05-02T12:41:21.994Z,8.93
2019-05-02T12:43:53.961Z,9.00
2019-05-02T12:46:28.528Z,9.00
2019-05-02T12:49:00.082Z,8.97
2019-05-02T12:51:32.588Z,9.87
2019-05-02T12:54:03.254Z,9.93
2019-05-02T12:56:35.093Z,10.20
2019-05-02T12:59:07.169Z,9.30
2019-05-02T13:01:37.981Z,10.50
2019-05-02T13:04:12.433Z,8.90
2019-05-02T13:06:45.413Z,8.93
2019-05-02T13:09:16.818Z,10.03
2019-05-02T13:11:53.263Z,10.60
2019-05-02T13:14:27.274Z,10.37
2019-05-02T13:17:03.857Z,12.27
2019-05-02T13:19:40.181Z,11.30
2019-05-02T13:22:24.520Z,9.10
2019-05-02T13:25:02.306Z,8.43
2019-05-02T13:27:43.379Z,9.73
2019-05-02T13:30:09.169Z,9.47
2019-05-02T13:32:42.742Z,9.83
2019-05-02T13:35:34.420Z,11.50
2019-05-02T13:38:09.149Z,7.43
2019-05-02T13:40:44.416Z,8.13
2019-05-02T13:43:16.100Z,7.37
2019-05-02T13:46:02.229Z,6.93
2019-05-02T13:48:34.147Z,8.40
2019-05-02T13:51:05.366Z,9.47
2019-05-02T13:53:40.082Z,9.20
2019-05-02T13:56:29.733Z,8.87
2019-05-02T13:59:02.603Z,7.90
2019-05-02T14:01:34.013Z,8.43
2019-05-02T14:04:10.152Z,8.90
2019-05-02T14:06:38.110Z,8.70
2019-05-02T14:09:32.361Z,8.20
2019-05-02T14:12:08.734Z,10.57
2019-05-02T14:14:39.297Z,9.27
2019-05-02T14:17:11.715Z,9.30
2019-05-02T14:19:43.859Z,9.83
2019-05-02T14:22:15.607Z,9.30
2019-05-02T14:24:46.957Z,9.53
2019-05-02T14:27:22.216Z,9.27
2019-05-02T14:29:56.449Z,8.93
2019-05-02T14:32:27.908Z,8.07
2019-05-02T14:35:18.719Z,10.10
2019-05-02T14:38:09.528Z,9.57
2019-05-02T14:41:03.023Z,9.37
2019-05-02T14:43:54.025Z,9.87
2019-05-02T14:46:34.220Z,8.87
2019-05-02T14:49:02.730Z,8.37
2019-05-02T14:51:36.603Z,8.50
2019-05-02T14:54:08.613Z,8.27
2019-05-02T14:56:47.781Z,8.17
2019-05-02T14:59:20.006Z,7.90
2019-05-02T15:01:58.017Z,7.70
2019-05-02T15:04:27.382Z,8.10
2019-05-02T15:06:58.121Z,8.43
2019-05-02T15:09:29.013Z,8.53
2019-05-02T15:12:02.412Z,7.47
2019-05-02T15:14:35.503Z,7.00
2019-05-02T15:17:07.813Z,7.97
2019-05-02T15:19:38.664Z,7.47
2019-05-02T15:22:09.418Z,7.30
2019-05-02T15:24:42.246Z,6.93
2019-05-02T15:27:17.502Z,7.03
2019-05-02T15:29:45.695Z,6.57
2019-05-02T15:32:25.557Z,6.63
2019-05-02T15:35:10.338Z,6.43
2019-05-02T15:37:41.980Z,6.37
2019-05-02T15:42:56.718Z,6.80
2019-05-02T15:45:25.498Z,6.93
2019-05-02T15:47:56.423Z,6.10
2019-05-02T15:50:27.551Z,7.57
2019-05-02T15:53:09.741Z,6.90
2019-05-02T15:55:39.360Z,6.40
2019-05-02T15:58:25.934Z,6.60
2019-05-02T16:01:04.952Z,6.40
2019-05-02T16:03:54.688Z,6.00
2019-05-02T16:06:30.808Z,6.87
2019-05-02T16:08:58.133Z,6.60
2019-05-02T16:11:28.979Z,5.40
2019-05-02T16:13:59.818Z,6.87
2019-05-02T16:16:32.052Z,6.90
2019-05-02T16:19:03.203Z,7.20
2019-05-02T16:21:43.245Z,6.20
2019-05-02T16:24:33.019Z,5.30
2019-05-02T16:27:03.893Z,5.77
2019-05-02T16:29:34.694Z,6.40
2019-05-02T16:32:24.673Z,5.97
2019-05-02T16:34:58.113Z,6.07
2019-05-02T16:37:28.933Z,5.60
2019-05-02T16:39:59.898Z,5.40
2019-05-02T16:42:32.698Z,5.27
2019-05-02T16:45:03.323Z,5.57
2019-05-02T16:47:34.254Z,5.43
2019-05-02T16:50:08.973Z,4.90
2019-05-02T16:52:43.804Z,5.73
2019-05-02T16:55:21.067Z,4.60
2019-05-02T16:57:47.258Z,4.73
2019-05-02T17:00:22.774Z,4.87
2019-05-02T17:02:54.005Z,5.23
2019-05-02T17:05:24.792Z,6.77
2019-05-02T17:08:18.928Z,6.03
2019-05-02T17:10:53.746Z,7.30
2019-05-02T17:13:27.584Z,6.60
2019-05-02T17:15:56.348Z,7.10
2019-05-02T17:18:27.268Z,7.13
2019-05-02T17:20:58.218Z,7.47
2019-05-02T17:23:29.233Z,6.43
2019-05-02T17:26:01.582Z,6.93
2019-05-02T17:28:32.564Z,8.13
2019-05-02T17:31:03.465Z,6.80
2019-05-02T17:33:34.662Z,6.80
2019-05-02T17:36:05.903Z,7.53
2019-05-02T17:38:36.553Z,7.70
2019-05-02T17:41:07.987Z,7.33
2019-05-02T17:43:42.233Z,8.70
2019-05-02T17:46:18.354Z,7.33
2019-05-02T17:48:47.640Z,7.60
2019-05-02T17:51:37.886Z,7.70
2019-05-02T17:54:12.000Z,7.67
2019-05-02T17:56:44.103Z,7.00
2019-05-02T17:59:16.972Z,7.87
2019-05-02T18:01:50.238Z,8.03
2019-05-02T18:04:22.603Z,8.40
2019-05-02T18:06:55.226Z,8.80
2019-05-02T18:09:31.616Z,8.77
2019-05-02T18:12:01.574Z,9.17
2019-05-02T18:14:33.404Z,8.43
2019-05-02T18:17:04.672Z,8.80
2019-05-02T18:19:36.195Z,8.13
2019-05-02T18:22:21.084Z,8.80
2019-05-02T18:24:46.401Z,8.80
2019-05-02T18:27:22.214Z,8.23
2019-05-02T18:29:53.245Z,8.20
2019-05-02T18:32:26.086Z,8.63
2019-05-02T18:35:01.285Z,8.57
2019-05-02T18:37:29.238Z,7.70
2019-05-02T18:40:00.053Z,7.93
2019-05-02T18:42:31.799Z,8.40
2019-05-02T18:45:02.760Z,8.60
2019-05-02T18:47:34.288Z,8.63
2019-05-02T18:50:06.205Z,8.77
2019-05-02T18:52:43.205Z,7.87
2019-05-02T18:55:17.143Z,7.47
2019-05-02T18:57:47.968Z,9.60
2019-05-02T19:00:19.778Z,10.97
2019-05-02T19:02:54.628Z,11.00
2019-05-02T19:05:26.704Z,10.87
2019-05-02T19:07:58.578Z,11.00
2019-05-02T19:10:32.206Z,10.47
2019-05-02T19:13:06.069Z,10.77
2019-05-02T19:15:39.709Z,10.37
2019-05-02T19:18:17.727Z,9.40
2019-05-02T19:21:04.560Z,8.70
2019-05-02T19:23:42.317Z,7.90
2019-05-02T19:26:15.420Z,7.70
2019-05-02T19:29:08.619Z,7.53
2019-05-02T19:31:47.257Z,7.80
2019-05-02T19:34:22.872Z,9.07
2019-05-02T19:36:57.812Z,8.27
2019-05-02T19:39:33.676Z,8.60
2019-05-02T19:42:06.642Z,9.33
2019-05-02T19:44:42.229Z,9.03
2019-05-02T19:47:22.959Z,13.17
2019-05-02T19:49:54.984Z,21.63
2019-05-02T19:52:40.506Z,21.53
2019-05-02T19:55:19.424Z,20.73
2019-05-02T19:57:44.613Z,11.77
2019-05-02T20:00:22.636Z,8.47
2019-05-02T20:02:53.778Z,8.87
2019-05-02T20:05:26.373Z,9.00
2019-05-02T20:07:58.965Z,9.80
2019-05-02T20:10:31.917Z,10.03
2019-05-02T20:13:12.786Z,9.97
2019-05-02T20:15:49.720Z,10.90
2019-05-02T20:18:22.667Z,11.60
2019-05-02T20:21:23.407Z,13.17
2019-05-02T20:23:47.016Z,13.10
2019-05-02T20:26:21.981Z,13.83
2019-05-02T20:28:56.987Z,15.03
2019-05-02T20:31:28.851Z,14.33
2019-05-02T20:34:03.297Z,15.77
2019-05-02T20:36:34.343Z,15.13
2019-05-02T20:39:07.708Z,15.00
2019-05-02T20:41:42.100Z,15.80
2019-05-02T20:44:13.083Z,15.80
2019-05-02T20:46:46.155Z,14.50
2019-05-02T20:49:20.411Z,15.20
2019-05-02T20:51:51.930Z,15.90
2019-05-02T20:54:24.425Z,16.27
2019-05-02T20:56:55.653Z,16.53
2019-05-02T20:59:26.677Z,15.73
2019-05-02T21:02:08.341Z,16.30
2019-05-02T21:04:39.288Z,16.57
2019-05-02T21:07:17.564Z,17.43
2019-05-02T21:10:07.149Z,17.17
2019-05-02T21:12:37.880Z,17.60
2019-05-02T21:15:09.562Z,18.03
2019-05-02T21:17:42.194Z,18.87
2019-05-02T21:20:15.589Z,21.50
2019-05-02T21:22:46.972Z,21.23
2019-05-02T21:25:17.611Z,31.90
2019-05-02T21:27:49.065Z,32.43
2019-05-02T21:30:27.258Z,34.43
2019-05-02T21:32:58.931Z,29.47
2019-05-02T21:35:31.925Z,27.57
2019-05-02T21:38:02.713Z,26.17
2019-05-02T21:40:33.632Z,22.23
2019-05-02T21:43:04.388Z,21.87
2019-05-02T21:45:35.128Z,20.80
2019-05-02T21:48:06.113Z,26.63
2019-05-02T21:50:43.553Z,29.30
2019-05-02T21:53:22.240Z,35.30
2019-05-02T21:56:09.688Z,25.50
2019-05-02T21:58:42.761Z,26.47
2019-05-02T22:01:15.048Z,29.87
2019-05-02T22:03:46.352Z,31.67
2019-05-02T22:06:17.902Z,29.00
2019-05-02T22:08:48.646Z,27.13
2019-05-02T22:11:20.094Z,25.03
2019-05-02T22:13:51.664Z,23.97
2019-05-02T22:16:23.202Z,23.30
2019-05-02T22:18:54.219Z,24.20
2019-05-02T22:21:26.237Z,23.37
2019-05-02T22:24:08.986Z,22.60
2019-05-02T22:26:32.904Z,21.57
2019-05-02T22:29:04.087Z,22.27
2019-05-02T22:31:37.628Z,21.70
2019-05-02T22:34:08.799Z,22.50
2019-05-02T22:36:42.904Z,22.20
2019-05-02T22:39:35.275Z,23.53
2019-05-02T22:42:06.548Z,22.90
2019-05-02T22:44:37.543Z,22.13
2019-05-02T22:47:08.486Z,21.97
2019-05-02T22:49:39.638Z,21.80
2019-05-02T22:52:12.463Z,21.53
2019-05-02T22:54:43.296Z,20.47
2019-05-02T22:57:14.450Z,19.87
2019-05-02T22:59:45.247Z,19.90
2019-05-02T23:02:17.239Z,19.80
2019-05-02T23:04:49.876Z,20.63
2019-05-02T23:07:22.172Z,18.87
2019-05-02T23:09:54.566Z,18.67
2019-05-02T23:12:25.908Z,19.60
2019-05-02T23:14:56.898Z,18.13
2019-05-02T23:17:27.843Z,19.07
2019-05-02T23:19:58.639Z,19.03
2019-05-02T23:22:29.818Z,18.57
2019-05-02T23:25:19.558Z,19.73
2019-05-02T23:27:53.854Z,19.67
2019-05-02T23:30:25.410Z,20.27
2019-05-02T23:32:56.274Z,20.53
2019-05-02T23:35:27.589Z,20.80
2019-05-02T23:37:58.597Z,22.00
2019-05-02T23:40:29.963Z,21.50
2019-05-02T23:43:01.963Z,24.07
2019-05-02T23:45:33.967Z,21.60
2019-05-02T23:48:05.263Z,21.63
2019-05-02T23:50:36.220Z,21.37
2019-05-02T23:53:10.088Z,21.20
2019-05-02T23:55:42.589Z,21.53
2019-05-02T23:58:13.495Z,19.77
